createdAt,value
2022-10-05T00:00:04.863Z,10.90
2022-10-05T00:02:36.152Z,10.82
2022-10-05T00:05:19.792Z,10.90
2022-10-05T00:07:52.510Z,10.93
2022-10-05T00:10:24.083Z,10.94
2022-10-05T00:12:55.574Z,10.91
2022-10-05T00:15:27.535Z,10.94
2022-10-05T00:17:59.857Z,10.90
2022-10-05T00:20:31.376Z,10.92
2022-10-05T00:23:06.099Z,10.88
2022-10-05T00:25:35.797Z,10.80
2022-10-05T00:28:16.874Z,10.72
2022-10-05T00:30:48.411Z,10.72
2022-10-05T00:33:19.607Z,10.73
2022-10-05T00:35:50.907Z,10.57
2022-10-05T00:38:23.058Z,10.60
2022-10-05T00:41:07.597Z,10.48
2022-10-05T00:43:56.730Z,10.66
2022-10-05T00:46:34.893Z,10.65
2022-10-05T00:49:15.580Z,10.60
2022-10-05T00:51:54.723Z,10.38
2022-10-05T00:54:33.157Z,10.38
2022-10-05T00:57:29.122Z,10.52
2022-10-05T01:00:06.593Z,10.64
2022-10-05T01:02:49.316Z,10.69
2022-10-05T01:05:34.874Z,10.72
2022-10-05T01:08:17.731Z,10.56
2022-10-05T01:10:56.435Z,10.53
2022-10-05T01:13:33.945Z,10.54
2022-10-05T01:16:15.132Z,10.47
2022-10-05T01:18:53.861Z,10.39
2022-10-05T01:21:27.278Z,10.38
2022-10-05T01:24:36.201Z,10.29
2022-10-05T01:27:23.752Z,10.43
2022-10-05T01:30:00.912Z,10.46
2022-10-05T01:32:37.171Z,10.45
2022-10-05T01:35:19.942Z,10.59
2022-10-05T01:38:09.717Z,10.56
2022-10-05T01:40:52.493Z,10.72
2022-10-05T01:43:30.695Z,10.75
2022-10-05T01:46:11.721Z,10.51
2022-10-05T01:48:54.878Z,10.40
2022-10-05T01:51:35.588Z,10.40
2022-10-05T01:54:19.032Z,10.37
2022-10-05T01:57:02.141Z,10.37
2022-10-05T01:59:47.703Z,10.52
2022-10-05T02:02:22.452Z,10.35
2022-10-05T02:05:02.384Z,10.47
2022-10-05T02:07:38.926Z,10.38
2022-10-05T02:10:16.738Z,10.20
2022-10-05T02:12:51.971Z,10.15
2022-10-05T02:15:28.825Z,10.06
2022-10-05T02:18:05.766Z,10.02
2022-10-05T02:20:39.641Z,10.04
2022-10-05T02:23:14.114Z,9.84
2022-10-05T02:25:48.134Z,9.75
2022-10-05T02:28:24.089Z,9.91
2022-10-05T02:31:00.225Z,9.97
2022-10-05T02:33:34.158Z,9.94
2022-10-05T02:36:12.887Z,9.87
2022-10-05T02:38:57.505Z,9.87
2022-10-05T02:41:44.176Z,9.88
2022-10-05T02:44:28.302Z,9.86
2022-10-05T02:47:07.823Z,9.79
2022-10-05T02:49:42.756Z,9.69
2022-10-05T02:52:20.383Z,9.68
2022-10-05T02:55:03.712Z,9.76
2022-10-05T02:57:40.105Z,9.79
2022-10-05T03:00:15.229Z,9.84
2022-10-05T03:02:53.998Z,9.89
2022-10-05T03:05:29.470Z,9.86
2022-10-05T03:08:05.169Z,9.95
2022-10-05T03:10:44.496Z,9.93
2022-10-05T03:13:26.919Z,9.93
2022-10-05T03:16:12.611Z,9.89
2022-10-05T03:18:55.753Z,9.78
2022-10-05T03:21:41.199Z,9.76
2022-10-05T03:24:28.217Z,9.84
2022-10-05T03:27:08.753Z,9.82
2022-10-05T03:29:45.718Z,9.85
2022-10-05T03:32:26.750Z,9.78
2022-10-05T03:35:10.040Z,9.77
2022-10-05T03:37:57.127Z,9.75
2022-10-05T03:40:41.431Z,9.86
2022-10-05T03:43:34.557Z,9.89
2022-10-05T03:46:13.108Z,9.91
2022-10-05T03:48:53.950Z,9.92
2022-10-05T03:51:34.242Z,9.85
2022-10-05T03:54:13.391Z,9.90
2022-10-05T03:56:50.662Z,9.90
2022-10-05T03:59:31.520Z,9.89
2022-10-05T04:02:07.557Z,9.92
2022-10-05T04:04:44.287Z,9.99
2022-10-05T04:07:32.179Z,9.89
2022-10-05T04:10:05.052Z,10.01
2022-10-05T04:12:42.261Z,10.09
2022-10-05T04:15:20.765Z,10.10
2022-10-05T04:17:57.232Z,10.06
2022-10-05T04:20:35.810Z,10.16
2022-10-05T04:23:16.906Z,10.09
2022-10-05T04:25:52.042Z,10.07
2022-10-05T04:28:32.189Z,10.01
2022-10-05T04:31:08.201Z,9.90
2022-10-05T04:33:39.444Z,9.91
2022-10-05T04:36:22.626Z,9.92
2022-10-05T04:39:07.024Z,9.97
2022-10-05T04:41:55.157Z,10.09
2022-10-05T04:44:50.879Z,10.14
2022-10-05T04:48:06.742Z,10.11
2022-10-05T04:50:57.638Z,10.13
2022-10-05T04:53:35.091Z,9.98
2022-10-05T04:56:14.191Z,10.09
2022-10-05T04:59:05.523Z,10.15
2022-10-05T05:01:52.540Z,10.08
2022-10-05T05:04:38.065Z,9.95
2022-10-05T05:07:20.231Z,10.06
2022-10-05T05:10:24.890Z,9.99
2022-10-05T05:13:08.941Z,10.12
2022-10-05T05:15:51.520Z,10.15
2022-10-05T05:18:47.206Z,10.23
2022-10-05T05:21:33.188Z,10.26
2022-10-05T05:24:14.059Z,10.32
2022-10-05T05:27:02.648Z,10.35
2022-10-05T05:29:45.223Z,10.32
2022-10-05T05:32:33.520Z,10.36
2022-10-05T05:35:28.553Z,10.38
2022-10-05T05:38:10.575Z,10.49
2022-10-05T05:40:49.072Z,10.66
2022-10-05T05:43:28.208Z,10.65
2022-10-05T05:46:06.242Z,10.68
2022-10-05T05:48:42.845Z,10.75
2022-10-05T05:51:19.058Z,10.55
2022-10-05T05:53:56.443Z,10.58
2022-10-05T05:56:34.014Z,10.77
2022-10-05T05:59:14.180Z,10.90
2022-10-05T06:01:50.594Z,10.98
2022-10-05T06:04:27.940Z,11.05
2022-10-05T06:07:03.350Z,11.03
2022-10-05T06:09:40.722Z,10.93
2022-10-05T06:12:15.777Z,10.94
2022-10-05T06:14:52.060Z,10.94
2022-10-05T06:17:28.416Z,11.04
2022-10-05T06:20:05.331Z,11.08
2022-10-05T06:22:42.437Z,11.12
2022-10-05T06:25:30.304Z,11.35
2022-10-05T06:28:12.814Z,11.58
2022-10-05T06:30:57.727Z,11.69
2022-10-05T06:33:43.744Z,11.97
2022-10-05T06:36:25.157Z,12.03
2022-10-05T06:39:26.202Z,12.15
2022-10-05T06:42:14.042Z,12.24
2022-10-05T06:44:54.937Z,12.33
2022-10-05T06:47:37.394Z,12.44
2022-10-05T06:50:20.578Z,12.45
2022-10-05T06:53:04.248Z,12.48
2022-10-05T06:55:45.922Z,12.56
2022-10-05T06:58:37.755Z,12.65
2022-10-05T07:01:15.560Z,12.61
2022-10-05T07:03:58.851Z,12.62
2022-10-05T07:06:37.262Z,12.68
2022-10-05T07:09:24.413Z,12.87
2022-10-05T07:12:09.265Z,12.91
2022-10-05T07:14:54.131Z,12.91
2022-10-05T07:17:45.942Z,12.92
2022-10-05T07:20:24.057Z,13.03
2022-10-05T07:23:25.465Z,13.12
2022-10-05T07:26:05.148Z,13.23
2022-10-05T07:28:46.378Z,13.19
2022-10-05T07:31:28.830Z,13.19
2022-10-05T07:34:07.117Z,13.22
2022-10-05T07:37:03.044Z,13.29
2022-10-05T07:39:59.481Z,13.41
2022-10-05T07:42:50.514Z,13.65
2022-10-05T07:45:31.587Z,13.68
2022-10-05T07:48:08.868Z,13.80
2022-10-05T07:50:46.016Z,13.87
2022-10-05T07:53:21.402Z,13.87
2022-10-05T07:55:55.728Z,13.89
2022-10-05T07:58:31.685Z,13.87
2022-10-05T08:01:10.215Z,13.92
2022-10-05T08:03:52.428Z,13.91
2022-10-05T08:06:41.166Z,13.93
2022-10-05T08:09:30.926Z,13.91
2022-10-05T08:12:18.224Z,13.87
2022-10-05T08:14:58.402Z,13.90
2022-10-05T08:17:41.098Z,13.91
2022-10-05T08:20:31.563Z,14.06
2022-10-05T08:23:08.795Z,14.30
2022-10-05T08:25:55.283Z,14.26
2022-10-05T08:28:29.847Z,14.35
2022-10-05T08:31:02.690Z,14.51
2022-10-05T08:33:40.691Z,14.51
2022-10-05T08:36:17.401Z,14.48
2022-10-05T08:38:54.937Z,14.45
2022-10-05T08:41:52.866Z,14.55
2022-10-05T08:45:06.058Z,14.58
2022-10-05T08:48:06.512Z,14.71
2022-10-05T08:51:17.841Z,14.79
2022-10-05T08:57:02.107Z,15.25
2022-10-05T08:59:59.053Z,15.24
2022-10-05T09:02:41.990Z,15.25
2022-10-05T09:05:38.011Z,15.38
2022-10-05T09:08:31.323Z,15.39
2022-10-05T09:11:19.165Z,15.40
2022-10-05T09:14:29.756Z,15.36
2022-10-05T09:17:39.202Z,15.64
2022-10-05T09:20:32.399Z,15.70
2022-10-05T09:23:16.078Z,15.79
2022-10-05T09:25:58.982Z,15.73
2022-10-05T09:28:39.682Z,15.69
2022-10-05T09:31:41.227Z,15.62
2022-10-05T09:34:50.840Z,15.50
2022-10-05T09:37:37.505Z,15.59
2022-10-05T09:40:41.935Z,15.79
2022-10-05T09:43:40.446Z,15.86
2022-10-05T09:46:36.446Z,15.82
2022-10-05T09:49:40.264Z,15.92
2022-10-05T09:52:27.993Z,16.13
2022-10-05T09:55:43.948Z,16.25
2022-10-05T09:58:48.568Z,16.34
2022-10-05T10:01:35.267Z,16.47
2022-10-05T10:04:44.213Z,16.53
2022-10-05T10:07:37.305Z,16.56
2022-10-05T10:10:39.140Z,16.60
2022-10-05T10:13:32.039Z,16.59
2022-10-05T10:16:17.601Z,16.59
2022-10-05T10:19:21.146Z,16.72
2022-10-05T10:22:31.349Z,16.77
2022-10-05T10:25:19.822Z,16.73
2022-10-05T10:28:08.618Z,16.84
2022-10-05T10:31:07.836Z,17.01
2022-10-05T10:34:11.936Z,17.07
2022-10-05T10:37:06.472Z,17.26
2022-10-05T10:39:55.656Z,17.45
2022-10-05T10:42:38.937Z,17.36
2022-10-05T10:45:21.347Z,17.40
2022-10-05T10:48:02.690Z,17.37
2022-10-05T10:50:50.975Z,17.35
2022-10-05T10:54:03.754Z,17.41
2022-10-05T10:57:00.008Z,17.41
2022-10-05T11:00:18.347Z,17.53
2022-10-05T11:03:05.125Z,17.73
2022-10-05T11:05:55.200Z,17.84
2022-10-05T11:08:59.354Z,17.82
2022-10-05T11:12:03.786Z,18.01
2022-10-05T11:14:52.607Z,17.97
2022-10-05T11:17:57.173Z,17.87
2022-10-05T11:20:49.581Z,17.95
2022-10-05T11:23:43.836Z,18.07
2022-10-05T11:26:32.722Z,18.24
2022-10-05T11:29:29.436Z,18.25
2022-10-05T11:32:31.779Z,18.27
2022-10-05T11:35:24.987Z,18.25
2022-10-05T11:38:17.385Z,18.36
2022-10-05T11:41:13.424Z,18.28
2022-10-05T11:44:07.043Z,18.23
2022-10-05T11:46:49.830Z,18.28
2022-10-05T11:49:34.428Z,18.40
2022-10-05T11:52:12.721Z,18.19
2022-10-05T11:55:25.136Z,18.14
2022-10-05T11:58:01.210Z,18.22
2022-10-05T12:00:40.687Z,18.26
2022-10-05T12:03:39.067Z,18.20
2022-10-05T12:06:26.623Z,18.20
2022-10-05T12:09:12.401Z,18.22
2022-10-05T12:11:58.635Z,18.17
2022-10-05T12:14:42.628Z,18.31
2022-10-05T12:17:24.394Z,18.34
2022-10-05T12:20:01.518Z,18.38
2022-10-05T12:22:38.954Z,18.58
2022-10-05T12:25:25.893Z,18.76
2022-10-05T12:28:00.121Z,18.87
2022-10-05T12:30:52.971Z,18.94
2022-10-05T12:33:29.309Z,18.97
2022-10-05T12:36:07.156Z,18.95
2022-10-05T12:38:44.497Z,18.80
2022-10-05T12:41:24.243Z,18.60
2022-10-05T12:44:11.351Z,18.56
2022-10-05T12:46:51.641Z,18.52
2022-10-05T12:50:01.575Z,18.60
2022-10-05T12:52:47.354Z,18.61
2022-10-05T12:55:26.851Z,18.60
2022-10-05T12:58:09.365Z,18.48
2022-10-05T13:00:52.050Z,18.50
2022-10-05T13:03:32.028Z,18.54
2022-10-05T13:06:13.354Z,18.48
2022-10-05T13:08:53.475Z,18.43
2022-10-05T13:11:35.322Z,18.43
2022-10-05T13:14:16.734Z,18.30
2022-10-05T13:16:55.494Z,18.24
2022-10-05T13:19:40.667Z,18.27
2022-10-05T13:22:28.711Z,18.38
2022-10-05T13:25:10.618Z,18.56
2022-10-05T13:27:47.052Z,18.53
2022-10-05T13:30:20.807Z,18.44
2022-10-05T13:32:58.846Z,18.32
2022-10-05T13:35:45.306Z,18.38
2022-10-05T13:38:31.266Z,18.45
2022-10-05T13:41:16.109Z,18.56
2022-10-05T13:43:49.731Z,18.53
2022-10-05T13:46:29.896Z,18.46
2022-10-05T13:49:10.745Z,18.30
2022-10-05T13:51:48.430Z,18.16
2022-10-05T13:54:24.282Z,18.13
2022-10-05T13:57:03.525Z,18.10
2022-10-05T13:59:43.739Z,18.06
2022-10-05T14:02:21.849Z,18.06
2022-10-05T14:04:59.865Z,18.10
2022-10-05T14:07:39.554Z,18.15
2022-10-05T14:10:29.779Z,18.16
2022-10-05T14:13:02.429Z,18.20
2022-10-05T14:15:41.312Z,18.34
2022-10-05T14:18:28.012Z,18.39
2022-10-05T14:21:05.130Z,18.39
2022-10-05T14:23:36.521Z,18.35
2022-10-05T14:26:31.561Z,18.43
2022-10-05T14:29:05.513Z,18.45
2022-10-05T14:31:38.664Z,18.56
2022-10-05T14:34:32.244Z,18.58
2022-10-05T14:37:10.320Z,18.52
2022-10-05T14:39:44.531Z,18.53
2022-10-05T14:42:21.496Z,18.50
2022-10-05T14:45:12.987Z,18.44
2022-10-05T14:47:51.528Z,18.30
2022-10-05T14:50:29.800Z,18.23
2022-10-05T14:53:19.224Z,18.15
2022-10-05T14:56:32.502Z,18.16
2022-10-05T14:59:30.876Z,18.25
2022-10-05T15:02:36.987Z,18.12
2022-10-05T15:05:17.058Z,18.13
2022-10-05T15:07:50.512Z,18.10
2022-10-05T15:10:43.649Z,18.03
2022-10-05T15:13:20.294Z,17.99
2022-10-05T15:15:54.932Z,17.97
2022-10-05T15:18:37.624Z,18.07
2022-10-05T15:21:26.641Z,18.12
2022-10-05T15:24:02.478Z,18.23
2022-10-05T15:26:45.341Z,18.24
2022-10-05T15:29:30.572Z,18.22
2022-10-05T15:32:14.816Z,18.19
2022-10-05T15:34:58.645Z,18.00
2022-10-05T15:37:37.786Z,17.82
2022-10-05T15:40:17.537Z,17.84
2022-10-05T15:42:50.737Z,17.96
2022-10-05T15:45:30.421Z,17.99
2022-10-05T15:48:05.160Z,17.96
2022-10-05T15:50:44.012Z,17.84
2022-10-05T15:53:25.263Z,17.67
2022-10-05T15:56:02.845Z,17.72
2022-10-05T15:58:55.318Z,17.81
2022-10-05T16:01:48.559Z,17.80
2022-10-05T16:04:27.552Z,17.70
2022-10-05T16:07:20.142Z,17.72
2022-10-05T16:09:59.643Z,17.77
2022-10-05T16:12:50.151Z,17.60
2022-10-05T16:15:30.011Z,17.50
2022-10-05T16:18:19.310Z,17.48
2022-10-05T16:20:57.340Z,17.42
2022-10-05T16:23:39.124Z,17.30
2022-10-05T16:26:26.240Z,17.28
2022-10-05T16:29:07.012Z,17.36
2022-10-05T16:31:47.378Z,17.20
2022-10-05T16:34:31.164Z,17.19
2022-10-05T16:37:10.995Z,17.09
2022-10-05T16:39:53.216Z,17.01
2022-10-05T16:42:37.016Z,17.16
2022-10-05T16:45:18.230Z,17.20
2022-10-05T16:47:56.976Z,17.15
2022-10-05T16:50:37.282Z,17.11
2022-10-05T16:53:17.149Z,17.05
2022-10-05T16:55:54.359Z,17.11
2022-10-05T16:58:31.127Z,17.10
2022-10-05T17:01:24.701Z,17.06
2022-10-05T17:04:08.239Z,17.05
2022-10-05T17:07:03.423Z,17.10
2022-10-05T17:09:59.551Z,17.08
2022-10-05T17:12:48.385Z,16.94
2022-10-05T17:15:47.999Z,16.93
2022-10-05T17:18:30.285Z,16.80
2022-10-05T17:21:08.283Z,16.83
2022-10-05T17:23:55.125Z,16.86
2022-10-05T17:26:56.896Z,16.77
2022-10-05T17:29:47.781Z,16.61
2022-10-05T17:32:39.740Z,16.47
2022-10-05T17:35:22.408Z,16.41
2022-10-05T17:38:22.118Z,16.30
2022-10-05T17:41:29.807Z,16.11
2022-10-05T17:44:24.716Z,16.26
2022-10-05T17:46:58.676Z,16.23
2022-10-05T17:50:16.236Z,16.09
2022-10-05T17:53:27.661Z,16.02
2022-10-05T17:56:08.280Z,15.99
2022-10-05T17:59:06.919Z,16.03
2022-10-05T18:01:40.411Z,15.97
2022-10-05T18:04:35.092Z,16.01
2022-10-05T18:07:19.883Z,15.87
2022-10-05T18:10:23.485Z,15.92
2022-10-05T18:13:22.607Z,15.95
2022-10-05T18:15:54.559Z,15.96
2022-10-05T18:18:57.981Z,15.92
2022-10-05T18:21:35.795Z,15.86
2022-10-05T18:24:37.144Z,15.74
2022-10-05T18:27:30.579Z,15.78
2022-10-05T18:30:15.797Z,15.92
2022-10-05T18:32:52.865Z,15.97
2022-10-05T18:35:30.115Z,15.93
2022-10-05T18:38:11.477Z,15.83
2022-10-05T18:40:54.282Z,15.78
2022-10-05T18:43:34.784Z,15.79
2022-10-05T18:46:18.131Z,15.57
2022-10-05T18:49:01.571Z,15.61
2022-10-05T18:51:51.532Z,15.53
2022-10-05T18:54:40.365Z,15.53
2022-10-05T18:57:41.213Z,15.44
2022-10-05T19:00:17.855Z,15.37
2022-10-05T19:02:54.690Z,15.43
2022-10-05T19:05:48.083Z,15.37
2022-10-05T19:08:30.126Z,15.24
2022-10-05T19:11:12.575Z,15.34
2022-10-05T19:13:52.026Z,15.36
2022-10-05T19:16:43.344Z,15.30
2022-10-05T19:19:33.611Z,15.25
2022-10-05T19:22:10.081Z,15.30
2022-10-05T19:24:50.626Z,15.31
2022-10-05T19:27:37.206Z,15.30
2022-10-05T19:30:23.332Z,15.31
2022-10-05T19:33:09.209Z,15.33
2022-10-05T19:35:57.696Z,15.33
2022-10-05T19:38:34.835Z,15.45
2022-10-05T19:41:16.364Z,15.26
2022-10-05T19:44:03.766Z,15.04
2022-10-05T19:46:51.255Z,15.15
2022-10-05T19:49:52.108Z,15.23
2022-10-05T19:52:31.385Z,15.29
2022-10-05T19:55:15.012Z,15.14
2022-10-05T19:57:54.025Z,15.17
2022-10-05T20:00:35.136Z,15.17
2022-10-05T20:03:28.359Z,15.02
2022-10-05T20:06:01.478Z,15.14
2022-10-05T20:08:40.884Z,15.08
2022-10-05T20:11:14.630Z,15.05
2022-10-05T20:13:47.783Z,15.01
2022-10-05T20:16:58.315Z,14.88
2022-10-05T20:19:54.400Z,14.82
2022-10-05T20:22:39.840Z,14.76
2022-10-05T20:25:32.512Z,14.73
2022-10-05T20:28:04.178Z,14.74
2022-10-05T20:30:35.547Z,14.88
2022-10-05T20:33:11.973Z,14.79
2022-10-05T20:35:43.752Z,14.77
2022-10-05T20:38:15.178Z,14.81
2022-10-05T20:40:46.926Z,14.71
2022-10-05T20:43:25.297Z,14.59
2022-10-05T20:45:56.909Z,14.55
2022-10-05T20:48:28.804Z,14.68
2022-10-05T20:51:00.555Z,14.84
2022-10-05T20:53:31.735Z,14.95
2022-10-05T20:56:04.768Z,14.90
2022-10-05T20:58:36.762Z,14.84
2022-10-05T21:01:19.369Z,14.76
2022-10-05T21:03:51.140Z,14.51
2022-10-05T21:06:23.198Z,14.52
2022-10-05T21:08:54.518Z,14.50
2022-10-05T21:11:28.327Z,14.50
2022-10-05T21:14:04.881Z,14.52
2022-10-05T21:16:38.385Z,14.57
2022-10-05T21:19:12.478Z,14.48
2022-10-05T21:21:44.966Z,14.37
2022-10-05T21:24:17.570Z,14.34
2022-10-05T21:26:49.262Z,14.35
2022-10-05T21:29:20.496Z,14.19
2022-10-05T21:31:51.975Z,14.02
2022-10-05T21:34:23.685Z,13.94
2022-10-05T21:36:55.408Z,13.90
2022-10-05T21:39:27.644Z,13.95
2022-10-05T21:41:58.851Z,13.86
2022-10-05T21:44:30.431Z,13.92
2022-10-05T21:47:02.587Z,13.93
2022-10-05T21:49:34.636Z,14.03
2022-10-05T21:52:06.747Z,13.87
2022-10-05T21:54:38.281Z,13.82
2022-10-05T21:57:12.516Z,13.91
2022-10-05T21:59:44.205Z,13.91
2022-10-05T22:02:15.677Z,13.85
2022-10-05T22:04:47.070Z,13.66
2022-10-05T22:07:20.863Z,13.67
2022-10-05T22:09:52.939Z,13.77
2022-10-05T22:12:26.647Z,13.71
2022-10-05T22:14:58.289Z,13.67
2022-10-05T22:17:31.986Z,13.64
2022-10-05T22:20:03.905Z,13.68
2022-10-05T22:22:35.335Z,13.64
2022-10-05T22:25:07.507Z,13.60
2022-10-05T22:27:40.349Z,13.61
2022-10-05T22:30:15.006Z,13.59
2022-10-05T22:32:45.341Z,13.55
2022-10-05T22:35:16.629Z,13.64
2022-10-05T22:37:47.842Z,13.62
2022-10-05T22:40:19.525Z,13.54
2022-10-05T22:42:50.924Z,13.44
2022-10-05T22:45:22.165Z,13.24
2022-10-05T22:47:53.387Z,13.21
2022-10-05T22:50:24.760Z,13.28
2022-10-05T22:52:56.277Z,13.28
2022-10-05T22:55:27.634Z,13.37
2022-10-05T22:57:59.072Z,13.21
2022-10-05T23:00:53.469Z,13.18
2022-10-05T23:03:21.568Z,13.13
2022-10-05T23:05:59.531Z,13.01
2022-10-05T23:08:31.396Z,13.05
2022-10-05T23:11:06.483Z,13.03
2022-10-05T23:13:38.168Z,12.89
2022-10-05T23:16:13.885Z,12.79
2022-10-05T23:18:47.205Z,12.66
2022-10-05T23:21:19.335Z,12.61
2022-10-05T23:23:52.470Z,12.82
2022-10-05T23:26:25.454Z,13.01
2022-10-05T23:28:56.723Z,13.02
2022-10-05T23:31:31.318Z,12.97
2022-10-05T23:34:02.626Z,13.09
2022-10-05T23:36:33.968Z,12.95
2022-10-05T23:39:05.555Z,12.88
2022-10-05T23:41:36.837Z,12.89
2022-10-05T23:44:08.171Z,12.80
2022-10-05T23:46:39.543Z,12.65
2022-10-05T23:49:10.851Z,12.65
2022-10-05T23:51:42.634Z,12.74
2022-10-05T23:54:14.656Z,12.72
2022-10-05T23:56:46.009Z,12.67
2022-10-05T23:59:17.282Z,12.59
